Time;durP1;ratioP1;P1;durP2;ratioP2;P2;SDS_P1;SDS_P2;PMS_P1;PMS_P2;Temp;Humidity;BMP_temperature;BMP_pressure;BME280_temperature;BME280_humidity;BME280_pressure;Samples;Min_cycle;Max_cycle;Signal;HPM_P1;HPM_P2
2021/06/16 00:01:41;;;;;;;5.10;4.60;;;15.60;99.90;15.40;97030.00;;;;5032754;28;20201;-84
2021/06/16 00:04:30;;;;;;;6.40;5.20;;;15.60;99.90;15.30;97036.00;;;;5034502;28;20633;-85
2021/06/16 00:07:20;;;;;;;5.00;4.60;;;15.60;99.90;15.10;97037.00;;;;5032990;28;20213;-82
2021/06/16 00:10:12;;;;;;;6.90;4.80;;;15.60;99.90;14.70;97033.00;;;;5033172;28;20228;-83
2021/06/16 00:13:02;;;;;;;11.50;5.57;;;15.40;99.90;14.80;97034.00;;;;5032162;28;20194;-82
2021/06/16 00:15:52;;;;;;;7.53;5.93;;;15.30;99.90;14.90;97031.00;;;;5033403;28;20216;-83
2021/06/16 00:18:41;;;;;;;8.50;6.40;;;15.30;99.90;15.00;97032.00;;;;5033024;28;20215;-84
2021/06/16 00:21:32;;;;;;;8.20;5.30;;;15.30;99.90;14.90;97023.00;;;;5031823;28;20232;-83
2021/06/16 00:24:23;;;;;;;8.63;5.57;;;15.30;99.90;14.80;97020.00;;;;5033974;28;20276;-83
2021/06/16 00:27:11;;;;;;;5.87;5.20;;;15.30;99.90;14.70;97020.00;;;;5027699;28;20212;-84
2021/06/16 00:30:00;;;;;;;7.50;5.20;;;15.20;99.90;14.60;97022.00;;;;5034160;28;20220;-83
2021/06/16 00:32:50;;;;;;;7.83;5.20;;;15.10;99.90;14.60;97027.00;;;;5035832;28;20213;-84
2021/06/16 00:35:39;;;;;;;6.20;5.10;;;15.10;99.90;14.50;97028.00;;;;5032045;28;20201;-84
2021/06/16 00:38:28;;;;;;;6.77;6.07;;;15.00;99.90;14.50;97022.00;;;;5034556;28;20216;-85
2021/06/16 00:41:19;;;;;;;6.87;5.53;;;15.00;99.90;14.40;97029.00;;;;5033911;28;20233;-85
2021/06/16 00:44:08;;;;;;;7.80;5.60;;;14.90;99.90;14.50;97013.00;;;;5033548;28;20602;-83
2021/06/16 00:46:57;;;;;;;9.27;5.47;;;14.90;99.90;14.40;97013.00;;;;5033872;28;20682;-84
2021/06/16 00:49:46;;;;;;;6.83;5.13;;;14.80;99.90;14.40;97012.00;;;;5033099;28;20217;-83
2021/06/16 00:52:36;;;;;;;6.83;4.77;;;14.80;99.90;14.40;97008.00;;;;5033661;28;20201;-85
2021/06/16 00:55:26;;;;;;;5.70;5.13;;;14.80;99.90;14.50;97005.00;;;;5032161;28;20201;-84
2021/06/16 00:58:16;;;;;;;7.60;4.77;;;14.80;99.90;14.30;97019.00;;;;5033243;28;20671;-83
2021/06/16 01:01:13;;;;;;;6.13;5.53;;;14.70;99.90;14.10;97015.00;;;;5034134;28;20225;-84
2021/06/16 01:04:10;;;;;;;8.17;5.87;;;14.70;99.90;14.20;97011.00;;;;5032074;28;20280;-85
2021/06/16 01:07:05;;;;;;;5.87;5.20;;;14.60;99.90;14.30;97012.00;;;;5031988;28;20233;-83
2021/06/16 01:10:02;;;;;;;6.10;5.57;;;14.60;99.90;14.10;97002.00;;;;5032880;28;20824;-82
2021/06/16 01:13:01;;;;;;;6.67;6.00;;;14.60;99.90;13.90;97007.00;;;;5033252;28;20205;-83
2021/06/16 01:16:03;;;;;;;6.87;5.43;;;14.50;99.90;13.70;97012.00;;;;5032672;28;20209;-82
2021/06/16 01:18:55;;;;;;;7.23;5.77;;;14.40;99.90;13.70;97012.00;;;;5032587;28;20212;-84
2021/06/16 01:21:50;;;;;;;7.13;5.77;;;14.30;99.90;13.70;97011.00;;;;5031445;28;20252;-82
2021/06/16 01:24:47;;;;;;;8.77;6.00;;;14.20;99.90;13.80;97002.00;;;;5031999;28;20217;-83
2021/06/16 01:27:39;;;;;;;5.97;5.47;;;14.20;99.90;13.80;97009.00;;;;5033255;28;20190;-83
2021/06/16 01:30:32;;;;;;;6.37;5.87;;;14.20;99.90;13.90;97000.00;;;;5030139;28;20709;-83
2021/06/16 01:33:21;;;;;;;8.00;5.87;;;14.20;99.90;13.60;97007.00;;;;5025353;28;20205;-83
2021/06/16 01:36:12;;;;;;;6.37;5.77;;;14.20;99.90;13.40;97005.00;;;;5032475;28;20678;-83
2021/06/16 01:39:02;;;;;;;8.07;5.70;;;14.10;99.90;13.40;97006.00;;;;5033039;28;20210;-83
2021/06/16 01:41:54;;;;;;;6.53;5.90;;;13.90;99.90;13.30;97002.00;;;;5031796;28;20547;-84
2021/06/16 01:44:45;;;;;;;7.17;5.40;;;13.90;99.90;13.50;97015.00;;;;5032713;28;20679;-83
2021/06/16 01:47:36;;;;;;;5.90;5.23;;;13.90;99.90;13.50;97008.00;;;;5033914;28;20216;-83
2021/06/16 01:50:25;;;;;;;7.67;5.60;;;13.90;99.90;13.70;97002.00;;;;5031427;28;20248;-83
2021/06/16 01:53:16;;;;;;;6.83;5.43;;;13.90;99.90;13.60;97001.00;;;;5021818;28;20201;-84
2021/06/16 01:56:07;;;;;;;8.00;6.90;;;13.90;99.90;13.70;96998.00;;;;5031503;28;20209;-83
2021/06/16 01:58:57;;;;;;;7.97;5.70;;;14.00;99.90;13.50;97001.00;;;;5031646;28;20201;-84
2021/06/16 02:01:50;;;;;;;6.60;5.30;;;13.90;99.90;13.40;96997.00;;;;5031606;28;20267;-83
2021/06/16 02:04:40;;;;;;;5.47;4.90;;;13.90;99.90;13.20;96997.00;;;;5031752;28;20209;-84
2021/06/16 02:07:31;;;;;;;6.17;5.57;;;13.80;99.90;13.20;96992.00;;;;5019459;28;20233;-83
2021/06/16 02:10:25;;;;;;;9.77;5.73;;;13.80;99.90;13.20;96984.00;;;;5031800;28;20225;-84
2021/06/16 02:13:17;;;;;;;5.77;5.13;;;13.70;99.90;13.30;96993.00;;;;5031694;28;20232;-84
2021/06/16 02:16:09;;;;;;;10.50;5.60;;;13.70;99.90;13.40;96979.00;;;;5032082;28;20209;-83
2021/06/16 02:19:05;;;;;;;9.80;6.27;;;13.70;99.90;13.20;96979.00;;;;5032209;28;20213;-84
2021/06/16 02:21:55;;;;;;;11.60;5.63;;;13.70;99.90;13.20;96971.00;;;;5031392;28;20209;-83
2021/06/16 02:24:46;;;;;;;5.90;5.40;;;13.70;99.90;13.10;96977.00;;;;5032390;28;20208;-85
2021/06/16 02:27:35;;;;;;;5.57;5.07;;;13.60;99.90;13.10;96975.00;;;;5032028;28;20229;-84
2021/06/16 02:30:24;;;;;;;6.73;6.03;;;13.60;99.90;13.10;96970.00;;;;5019542;28;20236;-85
2021/06/16 02:33:13;;;;;;;8.73;6.17;;;13.60;99.90;13.00;96977.00;;;;5029860;28;20201;-82
2021/06/16 02:36:05;;;;;;;8.03;6.40;;;13.40;99.90;13.10;96975.00;;;;5030761;28;20212;-83
2021/06/16 02:39:00;;;;;;;6.57;5.97;;;13.50;99.90;12.90;96974.00;;;;5032343;28;20209;-83
2021/06/16 02:41:50;;;;;;;8.57;6.10;;;13.50;99.90;12.90;96967.00;;;;5030394;28;20216;-84
2021/06/16 02:44:43;;;;;;;6.33;5.73;;;13.40;99.90;13.00;96972.00;;;;5032486;28;20680;-82
2021/06/16 02:47:34;;;;;;;7.10;5.77;;;13.40;99.90;13.20;96976.00;;;;5032586;28;20849;-84
2021/06/16 02:50:28;;;;;;;8.83;6.03;;;13.50;99.90;13.30;96974.00;;;;5032073;28;20229;-84
2021/06/16 02:53:23;;;;;;;9.90;6.37;;;13.50;99.90;13.40;96970.00;;;;5032813;28;20204;-83
2021/06/16 02:56:13;;;;;;;8.50;6.07;;;13.60;99.90;13.10;96973.00;;;;5033047;28;20198;-83
2021/06/16 02:59:01;;;;;;;5.50;5.00;;;13.60;99.90;13.00;96972.00;;;;5032604;28;20205;-85
2021/06/16 03:01:51;;;;;;;5.73;4.87;;;13.50;99.90;13.00;96975.00;;;;5034834;28;20209;-83
2021/06/16 03:04:42;;;;;;;7.00;5.93;;;13.50;99.90;13.00;96980.00;;;;5036831;28;20207;-84
2021/06/16 03:07:36;;;;;;;5.80;5.30;;;13.50;99.90;13.00;96988.00;;;;5032009;28;20694;-84
2021/06/16 03:10:28;;;;;;;6.47;5.73;;;13.50;99.90;13.00;96980.00;;;;5036490;28;20967;-83
2021/06/16 03:13:18;;;;;;;6.20;5.60;;;13.40;99.90;12.80;96985.00;;;;5037909;28;20220;-84
2021/06/16 03:16:08;;;;;;;6.70;6.10;;;13.40;99.90;12.70;96975.00;;;;5037184;28;20596;-83
2021/06/16 03:18:58;;;;;;;8.97;6.03;;;13.30;99.90;12.80;96975.00;;;;5037131;28;20201;-83
2021/06/16 03:21:49;;;;;;;8.30;6.03;;;13.30;99.90;12.60;96983.00;;;;5036471;28;20299;-83
2021/06/16 03:24:41;;;;;;;10.67;6.07;;;13.20;99.90;12.80;96980.00;;;;5018270;28;20268;-83
2021/06/16 03:27:33;;;;;;;6.73;5.93;;;13.20;99.90;12.80;96986.00;;;;5036658;28;20236;-83
2021/06/16 03:30:24;;;;;;;6.50;5.87;;;13.20;99.90;12.80;96989.00;;;;5037104;28;20221;-83
2021/06/16 03:33:14;;;;;;;6.70;5.70;;;13.20;99.90;12.90;96982.00;;;;5030688;28;20284;-84
2021/06/16 03:36:04;;;;;;;10.60;6.70;;;13.30;99.90;12.90;96988.00;;;;5036720;28;20215;-84
2021/06/16 03:38:53;;;;;;;9.07;7.23;;;13.30;99.90;12.90;96991.00;;;;5036429;28;20204;-85
2021/06/16 03:41:43;;;;;;;11.97;5.87;;;13.30;99.90;12.70;96977.00;;;;5025129;28;20201;-85
2021/06/16 03:44:35;;;;;;;11.23;6.47;;;13.20;99.90;12.60;96980.00;;;;5036769;28;20700;-85
2021/06/16 03:47:29;;;;;;;8.83;6.17;;;13.20;99.90;12.80;96988.00;;;;5037404;28;20640;-84
2021/06/16 03:50:21;;;;;;;8.97;6.83;;;13.20;99.90;12.90;96985.00;;;;5035382;28;20240;-82
2021/06/16 03:53:12;;;;;;;17.03;6.70;;;13.30;99.90;13.00;96992.00;;;;5018295;28;20213;-83
2021/06/16 03:56:02;;;;;;;6.77;6.17;;;13.30;99.90;13.40;96985.00;;;;5037321;28;20221;-84
2021/06/16 03:58:51;;;;;;;8.90;5.93;;;13.40;99.90;13.40;96981.00;;;;5037113;28;20193;-85
2021/06/16 04:01:59;;;;;;;7.10;6.40;;;13.60;99.90;13.60;96990.00;;;;5034774;28;20685;-86
2021/06/16 04:04:56;;;;;;;9.40;5.40;;;13.70;99.90;13.40;96993.00;;;;5030566;28;20205;-82
2021/06/16 04:07:49;;;;;;;7.77;5.50;;;13.80;99.90;13.10;96988.00;;;;5039286;28;20660;-84
2021/06/16 04:10:39;;;;;;;6.53;5.33;;;13.70;99.90;13.00;96996.00;;;;5037627;28;20229;-83
2021/06/16 04:13:28;;;;;;;5.80;5.13;;;13.60;99.90;13.00;96978.00;;;;5039218;28;20201;-83
2021/06/16 04:16:18;;;;;;;8.83;5.20;;;13.50;99.90;13.10;96986.00;;;;5043537;28;20213;-85
2021/06/16 04:19:08;;;;;;;6.93;6.17;;;13.50;99.90;13.20;96984.00;;;;5045150;28;20201;-84
2021/06/16 04:21:57;;;;;;;8.87;6.40;;;13.50;99.90;13.40;96996.00;;;;5040187;28;20231;-87
2021/06/16 04:24:47;;;;;;;7.23;6.13;;;13.60;99.90;13.60;97000.00;;;;5043382;28;20217;-84
2021/06/16 04:27:36;;;;;;;17.97;6.73;;;13.70;99.90;13.80;97001.00;;;;5042869;28;20221;-84
2021/06/16 04:30:26;;;;;;;9.33;5.50;;;13.80;99.90;14.00;97000.00;;;;5039085;28;20713;-84
2021/06/16 04:33:15;;;;;;;7.33;6.70;;;14.00;99.90;14.00;96999.00;;;;5040484;28;20708;-84
2021/06/16 04:36:08;;;;;;;8.27;6.30;;;14.10;99.90;14.00;96989.00;;;;5040766;28;20209;-86
2021/06/16 04:38:56;;;;;;;6.23;5.63;;;14.30;99.90;14.10;96992.00;;;;5041420;28;20213;-85
2021/06/16 04:41:46;;;;;;;6.23;5.63;;;14.30;99.90;14.00;96991.00;;;;5040051;28;20201;-84
2021/06/16 04:44:35;;;;;;;6.60;6.00;;;14.30;99.90;14.10;96998.00;;;;5036947;28;20202;-84
2021/06/16 04:47:29;;;;;;;10.63;6.07;;;14.40;99.90;14.10;96998.00;;;;5036108;28;20236;-86
2021/06/16 04:50:34;;;;;;;7.50;5.87;;;14.40;99.90;14.40;97005.00;;;;5036810;28;20232;-87
2021/06/16 04:53:24;;;;;;;8.07;5.90;;;14.80;99.90;14.50;96999.00;;;;5028015;28;20213;-87
2021/06/16 04:56:22;;;;;;;6.70;6.10;;;14.60;99.90;14.60;96989.00;;;;5037382;28;20205;-87
2021/06/16 04:59:11;;;;;;;6.30;5.70;;;14.70;99.90;14.70;96982.00;;;;5040012;28;20208;-85
2021/06/16 05:02:00;;;;;;;9.27;6.20;;;14.80;99.90;14.60;96985.00;;;;5037918;28;20205;-85
2021/06/16 05:04:49;;;;;;;9.80;6.43;;;14.90;99.90;14.70;96988.00;;;;5039866;28;20788;-85
2021/06/16 05:07:38;;;;;;;9.03;6.27;;;14.90;99.90;14.80;96991.00;;;;5039961;28;20232;-83
2021/06/16 05:10:36;;;;;;;6.50;5.67;;;15.00;99.90;14.90;96982.00;;;;5032666;28;20221;-88
2021/06/16 05:13:28;;;;;;;8.10;6.10;;;15.10;99.90;15.20;96978.00;;;;5033280;28;20209;-87
2021/06/16 05:16:17;;;;;;;6.00;5.10;;;16.40;99.90;15.20;96981.00;;;;5031779;28;20595;-87
2021/06/16 05:19:16;;;;;;;10.43;5.87;;;15.30;99.90;15.40;96976.00;;;;5031759;28;20300;-86
2021/06/16 05:22:16;;;;;;;7.00;6.17;;;15.50;99.90;15.70;96967.00;;;;5031702;28;20216;-88
2021/06/16 05:25:14;;;;;;;8.60;5.80;;;15.60;99.90;15.80;96977.00;;;;5031495;28;20197;-87
2021/06/16 05:28:11;;;;;;;7.00;6.10;;;15.80;99.90;16.10;96974.00;;;;5031352;28;20225;-87
2021/06/16 05:31:06;;;;;;;7.97;6.47;;;16.00;99.90;16.10;96978.00;;;;5030655;28;20602;-87
2021/06/16 05:33:57;;;;;;;9.10;5.97;;;16.20;99.90;16.30;96986.00;;;;5031976;28;20214;-86
2021/06/16 05:36:50;;;;;;;9.90;6.40;;;16.30;99.90;16.50;96976.00;;;;5031196;28;20690;-84
2021/06/16 05:40:00;;;;;;;8.47;6.50;;;16.50;99.90;16.60;96986.00;;;;5030406;28;20217;-87
2021/06/16 05:43:01;;;;;;;7.93;6.60;;;16.60;99.90;16.90;96986.00;;;;5029887;28;20215;-87
2021/06/16 05:45:51;;;;;;;13.47;6.87;;;16.80;99.90;17.10;96985.00;;;;5029813;28;20202;-87
2021/06/16 05:48:40;;;;;;;8.40;5.80;;;17.00;99.90;17.50;96991.00;;;;5032224;28;20403;-84
2021/06/16 05:51:29;;;;;;;10.33;7.83;;;17.30;99.90;17.80;97002.00;;;;5031574;28;20221;-84
2021/06/16 05:54:18;;;;;;;15.10;7.60;;;17.50;99.90;17.90;96991.00;;;;5030868;28;20212;-85
2021/06/16 05:57:07;;;;;;;9.17;6.30;;;17.70;99.90;17.90;96987.00;;;;5030759;28;20785;-85
2021/06/16 05:59:58;;;;;;;10.10;5.93;;;18.00;99.90;18.00;97000.00;;;;5030747;28;20801;-86
2021/06/16 06:02:48;;;;;;;18.10;6.10;;;17.90;99.90;18.20;96991.00;;;;5013972;28;20202;-85
2021/06/16 06:05:37;;;;;;;9.90;6.60;;;18.00;99.90;18.50;96992.00;;;;5029542;28;20582;-86
2021/06/16 06:08:26;;;;;;;8.93;6.57;;;18.20;99.90;18.70;96996.00;;;;5029035;28;20240;-84
2021/06/16 06:11:15;;;;;;;11.40;5.87;;;18.40;99.90;19.00;96987.00;;;;5026898;28;20217;-84
2021/06/16 06:14:05;;;;;;;18.33;6.37;;;18.70;99.90;19.20;96988.00;;;;5025071;28;20209;-85
2021/06/16 06:16:55;;;;;;;13.57;6.33;;;18.90;99.90;19.60;96980.00;;;;5030545;28;20206;-86
2021/06/16 06:19:45;;;;;;;7.00;5.13;;;19.20;99.90;19.70;96987.00;;;;5030997;28;20698;-85
2021/06/16 06:22:34;;;;;;;8.10;6.23;;;19.40;99.90;19.80;96989.00;;;;5030876;28;20217;-88
2021/06/16 06:25:24;;;;;;;8.67;6.03;;;19.60;99.90;19.70;96987.00;;;;5028582;28;20579;-86
2021/06/16 06:28:19;;;;;;;9.73;5.40;;;19.70;99.90;19.90;96993.00;;;;5031376;28;20225;-86
2021/06/16 06:31:09;;;;;;;14.50;6.30;;;19.80;99.90;19.60;96998.00;;;;5029665;28;20220;-85
2021/06/16 06:33:58;;;;;;;7.13;5.50;;;19.80;99.90;19.70;96984.00;;;;5028363;28;20216;-86
2021/06/16 06:36:49;;;;;;;9.87;5.73;;;19.80;99.90;19.80;96984.00;;;;5030938;28;20280;-87
2021/06/16 06:39:38;;;;;;;5.70;4.20;;;19.90;99.90;20.10;96981.00;;;;5028837;28;20240;-85
2021/06/16 06:42:27;;;;;;;8.13;4.67;;;20.00;99.90;20.40;96993.00;;;;5028594;28;20256;-86
2021/06/16 06:45:18;;;;;;;7.00;4.73;;;20.20;99.90;20.40;96989.00;;;;5029316;28;20204;-86
2021/06/16 06:48:08;;;;;;;11.23;5.80;;;20.30;99.90;20.60;96985.00;;;;5029291;28;20248;-86
2021/06/16 06:51:00;;;;;;;7.47;5.10;;;20.40;99.90;20.80;96981.00;;;;5029286;28;20257;-87
2021/06/16 06:53:53;;;;;;;10.20;5.50;;;20.60;99.90;21.40;96985.00;;;;5029584;28;20874;-86
2021/06/16 06:56:42;;;;;;;13.17;6.07;;;20.80;99.90;21.60;96978.00;;;;5031674;28;20691;-87
2021/06/16 06:59:31;;;;;;;7.07;4.40;;;21.10;99.90;21.30;96974.00;;;;5029187;28;20236;-86
2021/06/16 07:02:20;;;;;;;10.07;5.37;;;21.20;99.90;21.80;96975.00;;;;5029300;28;20217;-86
2021/06/16 07:05:13;;;;;;;7.47;4.87;;;21.40;99.90;22.10;96961.00;;;;5028951;28;20267;-87
2021/06/16 07:08:02;;;;;;;8.27;5.27;;;21.60;99.90;22.20;96958.00;;;;5029498;28;20225;-86
2021/06/16 07:10:53;;;;;;;8.00;5.33;;;21.80;99.90;22.20;96959.00;;;;5028404;28;20222;-86
2021/06/16 07:13:41;;;;;;;10.70;4.60;;;22.00;99.90;22.50;96948.00;;;;5028397;28;20220;-86
2021/06/16 07:16:30;;;;;;;11.40;4.80;;;22.10;99.90;22.90;96956.00;;;;5028582;28;20205;-87
2021/06/16 07:19:19;;;;;;;10.90;4.90;;;22.30;99.90;23.20;96952.00;;;;5030584;28;20295;-81
2021/06/16 07:22:09;;;;;;;6.03;4.97;;;22.50;99.90;23.50;96939.00;;;;5032442;28;20193;-81
2021/06/16 07:25:28;;;;;;;11.03;4.80;;;22.80;99.90;23.70;96951.00;;;;5027868;28;20205;-81
2021/06/16 07:28:27;;;;;;;8.53;4.33;;;23.10;98.10;23.90;96947.00;;;;5028279;28;20218;-82
2021/06/16 07:31:41;;;;;;;10.30;4.30;;;23.40;95.70;24.00;96946.00;;;;5026163;28;20304;-82
2021/06/16 07:34:30;;;;;;;5.97;3.87;;;23.60;94.40;24.20;96940.00;;;;5033561;28;20228;-83
2021/06/16 07:37:19;;;;;;;6.97;4.50;;;23.70;93.70;24.30;96941.00;;;;5031706;28;20213;-82
2021/06/16 07:40:10;;;;;;;7.20;3.80;;;23.90;92.40;24.50;96936.00;;;;5031909;28;20240;-83
2021/06/16 07:42:59;;;;;;;7.87;4.20;;;24.10;91.30;24.70;96929.00;;;;5040032;28;20201;-83
2021/06/16 07:45:49;;;;;;;10.33;4.77;;;24.20;90.40;24.90;96934.00;;;;5034962;28;20602;-83
2021/06/16 07:48:38;;;;;;;6.63;4.27;;;24.40;89.90;25.10;96943.00;;;;5035443;28;20225;-84
2021/06/16 07:51:27;;;;;;;5.33;3.80;;;24.60;88.80;25.10;96935.00;;;;5035655;28;20224;-82
2021/06/16 07:54:16;;;;;;;5.90;3.97;;;24.70;85.30;25.40;96933.00;;;;5033252;28;20229;-84
2021/06/16 07:57:05;;;;;;;4.83;3.60;;;24.90;84.40;25.60;96939.00;;;;5036640;28;20205;-83
2021/06/16 07:59:54;;;;;;;3.80;3.27;;;25.10;82.20;25.80;96934.00;;;;5036201;28;20257;-83
2021/06/16 08:02:45;;;;;;;4.60;3.40;;;25.30;80.40;26.10;96935.00;;;;5034400;28;20209;-83
2021/06/16 08:05:42;;;;;;;3.83;3.40;;;25.50;79.00;26.20;96940.00;;;;5035813;28;20224;-84
2021/06/16 08:08:39;;;;;;;9.03;3.60;;;25.70;76.90;26.20;96936.00;;;;5036094;28;20226;-84
2021/06/16 08:11:28;;;;;;;4.07;3.03;;;25.80;76.30;26.40;96948.00;;;;5034716;28;20232;-83
2021/06/16 08:14:17;;;;;;;3.57;3.13;;;26.00;74.90;26.30;96938.00;;;;5035900;28;20220;-84
2021/06/16 08:17:07;;;;;;;5.73;3.43;;;26.00;72.30;26.10;96940.00;;;;5032688;28;20644;-82
2021/06/16 08:19:57;;;;;;;6.63;2.93;;;26.10;69.20;26.20;96941.00;;;;5036492;28;20248;-83
2021/06/16 08:22:46;;;;;;;4.17;3.27;;;26.10;68.80;26.50;96937.00;;;;5037087;28;20207;-83
2021/06/16 08:25:35;;;;;;;5.40;3.57;;;26.20;68.30;26.70;96930.00;;;;5036251;28;20208;-82
2021/06/16 08:28:24;;;;;;;2.67;2.40;;;26.30;68.00;26.60;96933.00;;;;5036285;28;20221;-82
2021/06/16 08:31:13;;;;;;;3.80;2.90;;;26.40;64.40;26.70;96929.00;;;;5035724;28;20226;-83
2021/06/16 08:34:02;;;;;;;6.37;3.30;;;26.50;63.30;26.70;96937.00;;;;5036169;28;20205;-82
2021/06/16 08:36:53;;;;;;;7.20;3.43;;;26.60;63.60;26.70;96929.00;;;;5035822;28;20206;-83
2021/06/16 08:39:42;;;;;;;4.43;3.03;;;26.60;63.20;26.90;96929.00;;;;5034650;28;20237;-84
2021/06/16 08:42:31;;;;;;;6.40;3.73;;;26.60;61.30;27.00;96934.00;;;;5035718;28;20201;-83
2021/06/16 08:45:21;;;;;;;5.07;3.03;;;26.80;62.20;27.40;96940.00;;;;5045818;28;20217;-83
2021/06/16 08:48:11;;;;;;;7.77;3.53;;;26.90;63.70;27.50;96930.00;;;;5034899;28;20779;-83
2021/06/16 08:51:00;;;;;;;3.67;2.73;;;27.10;63.30;27.70;96932.00;;;;5035067;28;20223;-84
2021/06/16 08:53:50;;;;;;;7.87;3.40;;;27.30;62.10;27.70;96926.00;;;;5034990;28;20214;-84
2021/06/16 08:56:39;;;;;;;5.73;3.17;;;27.50;61.00;27.60;96935.00;;;;5035043;28;20206;-83
2021/06/16 08:59:28;;;;;;;3.90;2.70;;;27.60;59.60;27.90;96932.00;;;;5034379;28;20565;-83
2021/06/16 09:02:18;;;;;;;7.57;3.40;;;27.60;59.70;28.30;96923.00;;;;5035626;28;20212;-84
2021/06/16 09:05:08;;;;;;;5.10;3.40;;;27.70;60.50;28.40;96935.00;;;;5035295;28;20215;-83
2021/06/16 09:07:57;;;;;;;5.87;3.13;;;27.90;59.20;28.60;96936.00;;;;5034944;28;20257;-84
2021/06/16 09:10:49;;;;;;;3.60;3.17;;;28.00;58.90;28.70;96938.00;;;;5035512;28;20227;-84
2021/06/16 09:13:40;;;;;;;3.33;3.03;;;28.20;59.20;28.80;96942.00;;;;5037630;28;20206;-84
2021/06/16 09:16:32;;;;;;;6.27;3.50;;;28.40;58.70;27.70;96935.00;;;;5033413;28;20213;-83
2021/06/16 09:19:23;;;;;;;6.33;3.17;;;28.30;56.20;28.10;96946.00;;;;5033453;28;20209;-84
2021/06/16 09:22:13;;;;;;;5.03;3.07;;;28.20;57.00;28.50;96946.00;;;;5033388;28;20570;-83
2021/06/16 09:25:06;;;;;;;4.33;3.53;;;28.20;58.60;28.90;96943.00;;;;5033331;28;21013;-84
2021/06/16 09:27:56;;;;;;;4.07;3.23;;;28.30;58.10;28.70;96944.00;;;;5032980;28;20204;-83
2021/06/16 09:30:46;;;;;;;5.00;2.87;;;28.50;55.90;27.90;96943.00;;;;5033170;28;20238;-84
2021/06/16 09:33:36;;;;;;;4.97;2.97;;;28.40;56.10;28.40;96939.00;;;;5035746;28;20205;-84
2021/06/16 09:36:26;;;;;;;3.67;2.63;;;28.40;55.30;29.00;96942.00;;;;5035088;28;20205;-84
2021/06/16 09:39:15;;;;;;;7.83;4.10;;;28.40;56.00;29.10;96940.00;;;;5019137;28;20700;-83
2021/06/16 09:42:11;;;;;;;4.97;3.57;;;28.60;56.50;29.00;96947.00;;;;5033058;28;20208;-83
2021/06/16 09:45:03;;;;;;;5.03;3.37;;;28.80;55.20;28.70;96944.00;;;;5033730;28;20662;-84
2021/06/16 09:47:52;;;;;;;5.27;3.03;;;28.70;55.10;28.90;96940.00;;;;5034453;28;20734;-83
2021/06/16 09:50:41;;;;;;;4.50;3.57;;;28.80;54.80;29.30;96941.00;;;;5033566;28;20247;-83
2021/06/16 09:53:29;;;;;;;7.53;4.73;;;28.90;56.10;29.50;96941.00;;;;5034362;28;20209;-84
2021/06/16 09:56:18;;;;;;;4.60;3.40;;;29.10;56.40;28.80;96942.00;;;;5035508;28;20213;-84
2021/06/16 09:59:07;;;;;;;6.07;3.93;;;28.90;54.90;29.40;96936.00;;;;5033839;28;20209;-83
2021/06/16 10:01:58;;;;;;;7.87;4.30;;;29.00;55.80;30.00;96937.00;;;;5032881;28;20225;-84
2021/06/16 10:04:50;;;;;;;3.57;3.03;;;29.20;57.10;29.60;96927.00;;;;5034619;28;20206;-84
2021/06/16 10:07:38;;;;;;;6.53;3.93;;;29.40;55.10;29.60;96932.00;;;;5033601;28;20205;-83
2021/06/16 10:10:28;;;;;;;4.40;3.33;;;29.40;55.40;29.70;96945.00;;;;5032426;28;20225;-83
2021/06/16 10:13:20;;;;;;;3.90;3.47;;;29.60;54.80;30.10;96940.00;;;;5033635;28;20217;-83
2021/06/16 10:16:09;;;;;;;9.87;3.80;;;29.60;55.00;30.50;96940.00;;;;5032864;28;20215;-83
2021/06/16 10:19:00;;;;;;;5.17;3.03;;;29.80;54.20;30.40;96947.00;;;;5032282;28;20230;-83
2021/06/16 10:21:49;;;;;;;3.73;3.33;;;29.90;53.20;30.10;96944.00;;;;5032473;28;20206;-83
2021/06/16 10:24:38;;;;;;;4.33;3.97;;;29.90;52.10;30.20;96934.00;;;;5035165;28;20202;-83
2021/06/16 10:27:31;;;;;;;3.80;3.30;;;30.00;52.80;29.40;96937.00;;;;5034353;28;20200;-83
2021/06/16 10:30:24;;;;;;;2.70;2.50;;;29.80;51.20;29.00;96934.00;;;;5032215;28;20957;-84
2021/06/16 10:33:32;;;;;;;3.77;2.77;;;29.70;51.60;29.60;96928.00;;;;5033196;28;20202;-83
2021/06/16 10:36:23;;;;;;;5.80;3.17;;;29.50;50.90;30.40;96944.00;;;;5032757;28;20200;-83
2021/06/16 10:39:14;;;;;;;6.07;3.87;;;29.60;52.30;30.40;96926.00;;;;5033897;28;20203;-82
2021/06/16 10:42:04;;;;;;;3.53;3.07;;;29.70;52.30;30.60;96925.00;;;;5020187;28;20198;-83
2021/06/16 10:45:19;;;;;;;5.10;3.23;;;29.90;52.90;30.50;96933.00;;;;5021894;28;20214;-84
2021/06/16 10:48:10;;;;;;;8.33;3.60;;;30.10;52.40;30.80;96926.00;;;;5033567;28;20214;-85
2021/06/16 10:51:04;;;;;;;5.70;3.70;;;30.20;52.40;31.00;96935.00;;;;5033539;28;20242;-83
2021/06/16 10:54:21;;;;;;;5.97;3.30;;;30.40;52.10;30.20;96935.00;;;;5032195;28;20210;-84
2021/06/16 10:57:13;;;;;;;3.93;3.37;;;30.40;51.00;29.90;96943.00;;;;5033032;28;20222;-83
2021/06/16 11:00:14;;;;;;;4.50;3.87;;;30.30;51.90;28.80;96937.00;;;;5032717;28;20228;-83
2021/06/16 11:03:05;;;;;;;4.17;3.37;;;30.10;51.40;28.60;96931.00;;;;5032321;28;20225;-83
2021/06/16 11:05:54;;;;;;;3.97;3.50;;;29.60;51.10;29.70;96936.00;;;;5036050;28;20209;-83
2021/06/16 11:08:47;;;;;;;3.87;3.47;;;29.50;53.30;29.70;96932.00;;;;5042453;28;20200;-83
2021/06/16 11:12:08;;;;;;;4.97;3.37;;;29.50;52.30;29.90;96934.00;;;;5032215;28;20238;-84
2021/06/16 11:14:58;;;;;;;4.10;3.23;;;29.70;52.30;30.00;96935.00;;;;5034053;28;20212;-83
2021/06/16 11:17:47;;;;;;;5.83;3.63;;;29.80;52.90;31.00;96915.00;;;;5031980;28;20211;-86
2021/06/16 11:20:41;;;;;;;4.07;3.57;;;30.00;53.40;31.70;96906.00;;;;5028483;28;20234;-86
2021/06/16 11:23:31;;;;;;;5.73;3.40;;;30.40;52.90;32.10;96904.00;;;;5038590;28;20210;-87
2021/06/16 11:26:44;;;;;;;9.05;3.25;;;30.70;53.50;32.40;96900.00;;;;5031427;28;20203;-87
2021/06/16 11:30:07;;;;;;;5.28;3.38;;;31.20;53.70;32.10;96908.00;;;;5027823;28;20239;-86
2021/06/16 11:33:51;;;;;;;5.18;3.67;;;31.40;53.50;31.90;96906.00;;;;5032375;28;20210;-88
2021/06/16 11:36:42;;;;;;;4.93;3.42;;;31.40;51.60;32.60;96896.00;;;;5027113;28;20215;-87
2021/06/16 11:39:31;;;;;;;3.58;3.25;;;31.70;51.70;32.40;96894.00;;;;5043063;28;20232;-85
2021/06/16 11:42:20;;;;;;;6.93;3.92;;;31.90;51.40;33.00;96885.00;;;;5031492;28;20660;-87
2021/06/16 11:45:12;;;;;;;4.10;3.13;;;32.00;50.90;33.80;96896.00;;;;5033583;28;20202;-87
2021/06/16 11:48:02;;;;;;;5.35;3.90;;;32.40;52.40;32.90;96905.00;;;;5032163;28;20218;-86
2021/06/16 11:50:51;;;;;;;4.85;4.38;;;32.50;50.90;32.00;96888.00;;;;5029363;28;20591;-87
2021/06/16 11:53:40;;;;;;;4.93;3.53;;;32.50;49.50;30.60;96894.00;;;;5031784;28;20273;-86
2021/06/16 11:56:29;;;;;;;3.75;3.38;;;31.90;49.50;32.10;96886.00;;;;5032793;28;20191;-86
2021/06/16 11:59:39;;;;;;;4.20;3.35;;;31.70;49.60;31.20;96880.00;;;;5032138;28;20218;-86
2021/06/16 12:02:32;;;;;;;3.65;3.10;;;31.70;49.20;30.60;96868.00;;;;5033321;28;20208;-84
2021/06/16 12:05:27;;;;;;;4.35;3.17;;;31.50;48.40;29.40;96863.00;;;;5035536;28;20705;-83
2021/06/16 12:08:24;;;;;;;3.92;3.13;;;30.60;48.70;30.30;96871.00;;;;5035149;28;20215;-83
2021/06/16 12:11:22;;;;;;;3.72;3.08;;;30.40;48.90;31.50;96875.00;;;;5035941;28;20223;-83
2021/06/16 12:14:12;;;;;;;3.72;3.13;;;30.60;49.40;32.80;96875.00;;;;5028767;28;20202;-83
2021/06/16 12:17:05;;;;;;;3.00;2.70;;;31.10;50.30;32.60;96878.00;;;;5043944;28;20211;-82
2021/06/16 12:20:05;;;;;;;2.85;2.42;;;31.50;48.20;33.10;96878.00;;;;5040662;28;20220;-82
2021/06/16 12:22:54;;;;;;;5.05;2.63;;;31.70;48.50;31.50;96871.00;;;;5034774;28;20732;-82
2021/06/16 12:25:43;;;;;;;3.45;2.88;;;32.00;46.20;31.10;96872.00;;;;5029272;28;20556;-82
2021/06/16 12:28:33;;;;;;;3.38;2.72;;;32.10;46.20;30.30;96851.00;;;;5030193;28;20221;-83
2021/06/16 12:31:27;;;;;;;4.13;3.17;;;31.20;46.70;32.10;96857.00;;;;5034496;28;20255;-85
2021/06/16 12:34:29;;;;;;;3.75;2.78;;;31.40;48.10;33.50;96867.00;;;;5031452;28;20223;-84
2021/06/16 12:37:19;;;;;;;2.83;2.42;;;31.90;48.40;32.60;96856.00;;;;5034463;28;20217;-87
2021/06/16 12:40:11;;;;;;;6.00;2.33;;;32.40;46.90;34.20;96858.00;;;;5034498;28;20227;-85
2021/06/16 12:43:00;;;;;;;5.07;3.42;;;32.70;48.10;34.30;96855.00;;;;5034653;28;20216;-85